Погода Вильягранна неделю

Гуанахуато, Мексика

22 - 28 февраля
  • 22февраля
    Сегодня
    +10°
    +31°
    Практически безоблачно
    ВремяПогодаТемператураВлажностьДавлениеВетер, м/сВероятность осадков
    00:00Ясно и безоблачно+16°C24 %622 мм1.9 м/с2 %
    03:00Ясно и безоблачно+11°C33 %620 мм1.8 м/с2 %
    06:00Ясно и безоблачно+8°C42 %619 мм1.3 м/с2 %
    09:00Ясно и безоблачно+13°C35 %624 мм0.5 м/с2 %
    12:00Ясно и безоблачно+25°C16 %626 мм1.6 м/с2 %
    15:00Практически безоблачно+30°C10 %624 мм2.6 м/с2 %
    18:00Ясно и безоблачно+29°C18 %623 мм2.1 м/с2 %
    21:00Ясно и безоблачно+21°C29 %621 мм1.7 м/с2 %
  • 23февраля
    Пятница
    +10°
    +31°
    Ясно и безоблачно
    ВремяПогодаТемператураВлажностьДавлениеВетер, м/сВероятность осадков
    00:00Ясно и безоблачно+18°C35 %621 мм1.6 м/с2 %
    03:00Ясно и безоблачно+13°C46 %619 мм1.7 м/с2 %
    06:00Ясно и безоблачно+12°C42 %619 мм0.9 м/с2 %
    09:00Ясно и безоблачно+15°C32 %622 мм1.0 м/с2 %
    12:00Ясно и безоблачно+26°C15 %624 мм0.4 м/с2 %
    15:00Ясно и безоблачно+30°C9 %623 мм0.6 м/с2 %
    18:00Ясно и безоблачно+29°C14 %622 мм1.3 м/с2 %
    21:00Ясно и безоблачно+21°C41 %623 мм5.0 м/с2 %
  • 24февраля
    Суббота
    +10°
    +31°
    Небольшая облачность
    ВремяПогодаТемператураВлажностьДавлениеВетер, м/сВероятность осадков
    00:00Ясно и безоблачно+16°C66 %623 мм5.6 м/с2 %
    03:00Ясно и безоблачно+13°C81 %622 мм4.8 м/с2 %
    06:00Практически безоблачно+11°C90 %622 мм4.7 м/с2 %
    09:00Ясно и безоблачно+13°C72 %624 мм4.4 м/с2 %
    12:00Ясно и безоблачно+23°C35 %626 мм2.3 м/с2 %
    15:00Небольшая облачность+30°C15 %625 мм0.8 м/с2 %
    18:00Ясно и безоблачно+29°C15 %624 мм1.5 м/с2 %
    21:00Небольшая облачность+22°C35 %625 мм5.6 м/с2 %
  • 25февраля
    Воскресенье
    +13°
    +32°
    Ясно и безоблачно
    ВремяПогодаТемператураВлажностьДавлениеВетер, м/сВероятность осадков
    00:00Облачно с прояснениями+17°C66 %624 мм4.9 м/с2 %
    03:00Практически безоблачно+14°C76 %623 мм4.5 м/с2 %
    06:00Небольшая облачность+12°C84 %623 мм3.3 м/с2 %
    09:00Практически безоблачно+14°C63 %625 мм2.0 м/с2 %
    12:00Ясно и безоблачно+26°C29 %627 мм0.9 м/с2 %
    15:00Ясно и безоблачно+31°C12 %626 мм1.4 м/с2 %
    18:00Ясно и безоблачно+30°C21 %625 мм0.2 м/с2 %
    21:00Ясно и безоблачно+25°C20 %624 мм0.5 м/с2 %
  • 26февраля
    Понедельник
    +13°
    +33°
    Ясно и безоблачно
    ВремяПогодаТемператураВлажностьДавлениеВетер, м/сВероятность осадков
    00:00Ясно и безоблачно+19°C45 %624 мм3.0 м/с2 %
    03:00Ясно и безоблачно+16°C52 %623 мм2.9 м/с2 %
    06:00Ясно и безоблачно+13°C59 %622 мм2.2 м/с2 %
    09:00Ясно и безоблачно+17°C40 %625 мм1.2 м/с2 %
    12:00Ясно и безоблачно+27°C19 %627 мм0.7 м/с2 %
    15:00Ясно и безоблачно+32°C11 %625 мм1.2 м/с2 %
    18:00Ясно и безоблачно+32°C15 %624 мм1.1 м/с2 %
    21:00Ясно и безоблачно+24°C14 %622 мм2.3 м/с2 %
Мы используем cookies
Соглашаюсь